Lakeside, Arizona
Current Conditions -  °F | °C
As of 4:15 PM on Sunday 21 Dec 2014 (Local Time) from KSOW Reporting Station
Clear Clear  
Wind Chill: 44°   Ceiling: Unl
Heat Index: 48°   Visibility: 10mi
Dew Point: 28°   Wind: 9mph
Humidity: 46%   Direction: 200°SSW
Pressure: 30.07"   Gusts: NA
Location:  34.15°N, 109.98°W
Report Text: KSOW 212315Z AUTO 20008KT 10SM CLR 09/M02 A3007 RMK AO2
Loading
Personal Weather Stations






























Interactive Weather Map New forecast layout! Learn more

10-Day Weather Forecast

Advertisements
Track Severe Weather on mobile